Time;durP1;ratioP1;P1;durP2;ratioP2;P2;SDS_P1;SDS_P2;PMS_P1;PMS_P2;Temp;Humidity;BMP_temperature;BMP_pressure;BME280_temperature;BME280_humidity;BME280_pressure;Samples;Min_cycle;Max_cycle;Signal;HPM_P1;HPM_P2
2023/09/16 00:02:05;;;;;;;;;;;;;;;25.50;48.18;99057.25;5074034;28;20016;-72
2023/09/16 00:04:31;;;;;;;;;;;;;;;25.48;48.11;99066.53;5073695;28;19917;-72
2023/09/16 00:06:56;;;;;;;;;;;;;;;25.45;48.35;99068.56;5072525;28;19921;-71
2023/09/16 00:09:22;;;;;;;;;;;;;;;25.43;48.16;99073.28;5074272;28;20022;-71
2023/09/16 00:11:48;;;;;;;;;;;;;;;25.42;48.38;99078.84;5072152;28;19920;-71
2023/09/16 00:14:13;;;;;;;;;;;;;;;25.38;48.29;99083.78;5072302;28;19923;-71
2023/09/16 00:16:38;;;;;;;;;;;;;;;25.37;48.50;99090.16;5072486;28;19917;-71
2023/09/16 00:19:04;;;;;;;;;;;;;;;25.34;48.36;99082.53;5073509;28;19997;-71
2023/09/16 00:21:30;;;;;;;;;;;;;;;25.33;48.35;99088.91;5072179;28;19924;-71
2023/09/16 00:23:55;;;;;;;;;;;;;;;25.33;48.53;99090.75;5073042;28;19916;-71
2023/09/16 00:26:20;;;;;;;;;;;;;;;25.31;48.18;99093.63;5072901;28;19916;-72
2023/09/16 00:28:46;;;;;;;;;;;;;;;25.32;48.36;99102.47;5054789;28;20429;-71
2023/09/16 00:31:12;;;;;;;;;;;;;;;25.31;48.16;99104.31;5072066;28;19916;-71
2023/09/16 00:33:37;;;;;;;;;;;;;;;25.31;48.42;99098.97;5071956;28;19917;-71
2023/09/16 00:36:03;;;;;;;;;;;;;;;25.32;48.14;99097.97;5055052;28;19920;-71
2023/09/16 00:38:28;;;;;;;;;;;;;;;25.31;48.29;99104.31;5073025;28;20358;-72
2023/09/16 00:40:53;;;;;;;;;;;;;;;25.32;48.17;99103.31;5071844;28;19917;-71
2023/09/16 00:43:19;;;;;;;;;;;;;;;25.32;48.10;99110.47;5071887;28;19963;-71
2023/09/16 00:45:44;;;;;;;;;;;;;;;25.32;48.12;99100.63;5072081;28;20396;-71
2023/09/16 00:48:10;;;;;;;;;;;;;;;25.31;48.11;99098.16;5073044;28;19924;-71
2023/09/16 00:50:35;;;;;;;;;;;;;;;25.31;48.22;99098.97;5071165;28;19974;-71
2023/09/16 00:53:00;;;;;;;;;;;;;;;25.30;47.94;99094.66;5072883;28;20383;-71
2023/09/16 00:55:26;;;;;;;;;;;;;;;25.28;47.94;99100.19;5071455;28;19920;-71
2023/09/16 00:57:52;;;;;;;;;;;;;;;25.28;48.02;99099.38;5071688;28;19942;-71
2023/09/16 01:00:17;;;;;;;;;;;;;;;25.26;47.96;99104.91;5055017;28;19945;-68
2023/09/16 01:02:43;;;;;;;;;;;;;;;25.26;48.10;99104.91;5071589;28;19917;-71
2023/09/16 01:05:14;;;;;;;;;;;;;;;25.25;48.01;99108.63;5054425;28;19924;-71
2023/09/16 01:07:41;;;;;;;;;;;;;;;25.25;47.94;99105.09;5072780;28;19917;-72
2023/09/16 01:10:07;;;;;;;;;;;;;;;25.23;48.19;99112.50;5071801;28;19920;-71
2023/09/16 01:12:32;;;;;;;;;;;;;;;25.21;47.87;99115.38;5072946;28;19928;-71
2023/09/16 01:14:57;;;;;;;;;;;;;;;25.20;48.07;99118.25;5071811;28;19916;-71
2023/09/16 01:17:32;;;;;;;;;;;;;;;25.18;47.84;99122.97;5072744;28;20303;-71
2023/09/16 01:19:57;;;;;;;;;;;;;;;25.18;47.96;99122.97;5071438;28;20393;-73
2023/09/16 01:22:23;;;;;;;;;;;;;;;25.16;47.82;99119.66;5072748;28;19921;-71
2023/09/16 01:24:52;;;;;;;;;;;;;;;25.12;48.00;99119.25;5054394;28;20395;-71
2023/09/16 01:27:17;;;;;;;;;;;;;;;25.12;47.87;99119.25;5070580;28;19920;-71
2023/09/16 01:29:43;;;;;;;;;;;;;;;25.09;48.03;99117.00;5104809;28;20061;-71
2023/09/16 01:32:10;;;;;;;;;;;;;;;25.08;47.81;99126.84;5104723;28;20367;-71
2023/09/16 01:34:39;;;;;;;;;;;;;;;25.07;48.03;99132.41;5072226;28;19923;-71
2023/09/16 01:37:04;;;;;;;;;;;;;;;25.05;48.03;99135.28;5072648;28;19974;-71
2023/09/16 01:39:29;;;;;;;;;;;;;;;25.04;47.87;99140.81;5075036;28;20299;-71
2023/09/16 01:41:55;;;;;;;;;;;;;;;25.01;48.01;99136.69;5075240;28;19916;-71
2023/09/16 01:44:20;;;;;;;;;;;;;;;25.00;48.03;99134.22;5058250;28;19920;-71
2023/09/16 01:46:46;;;;;;;;;;;;;;;24.99;47.72;99135.25;5075265;28;19924;-70
2023/09/16 01:49:11;;;;;;;;;;;;;;;24.98;47.99;99141.63;5058172;28;20014;-71
2023/09/16 01:51:36;;;;;;;;;;;;;;;24.96;47.92;99138.34;5076136;28;19924;-71
2023/09/16 01:54:01;;;;;;;;;;;;;;;24.95;47.91;99142.00;5074869;28;19959;-70
2023/09/16 01:56:27;;;;;;;;;;;;;;;24.92;47.90;99141.41;5074942;28;20069;-70
2023/09/16 01:58:52;;;;;;;;;;;;;;;24.91;47.96;99136.25;5075083;28;20376;-70
2023/09/16 02:01:17;;;;;;;;;;;;;;;24.92;48.18;99129.88;5074459;28;20364;-70
2023/09/16 02:03:43;;;;;;;;;;;;;;;24.90;48.21;99127.41;5076080;28;19920;-70
2023/09/16 02:06:08;;;;;;;;;;;;;;;24.92;47.99;99122.72;5075265;28;19917;-70
2023/09/16 02:08:34;;;;;;;;;;;;;;;24.93;48.12;99119.00;5074764;28;19929;-70
2023/09/16 02:11:00;;;;;;;;;;;;;;;24.93;48.04;99120.84;5057898;28;19920;-70
2023/09/16 02:13:25;;;;;;;;;;;;;;;24.96;47.89;99119.63;5075007;28;20014;-70
2023/09/16 02:15:50;;;;;;;;;;;;;;;24.95;47.87;99115.31;5074662;28;19974;-71
2023/09/16 02:18:15;;;;;;;;;;;;;;;24.95;48.16;99115.31;5075806;28;19939;-70
2023/09/16 02:20:41;;;;;;;;;;;;;;;24.95;48.10;99115.31;5074240;28;20007;-71
2023/09/16 02:23:07;;;;;;;;;;;;;;;24.94;48.11;99109.16;5075872;28;20354;-71
2023/09/16 02:25:33;;;;;;;;;;;;;;;24.95;47.97;99101.97;5057954;28;19916;-69
2023/09/16 02:27:59;;;;;;;;;;;;;;;24.95;48.10;99115.31;5074505;28;19974;-70
2023/09/16 02:30:24;;;;;;;;;;;;;;;24.94;47.84;99114.50;5074089;28;20030;-70
2023/09/16 02:32:49;;;;;;;;;;;;;;;24.95;47.82;99109.97;5074270;28;19916;-70
2023/09/16 02:35:14;;;;;;;;;;;;;;;24.94;47.76;99114.50;5074556;28;20360;-70
2023/09/16 02:37:40;;;;;;;;;;;;;;;24.93;47.83;99118.19;5075664;28;19924;-70
2023/09/16 02:40:05;;;;;;;;;;;;;;;24.92;47.94;99124.53;5073680;28;19960;-71
2023/09/16 02:42:31;;;;;;;;;;;;;;;24.91;47.97;99117.56;5075266;28;20288;-71
2023/09/16 02:44:57;;;;;;;;;;;;;;;24.90;47.81;99122.06;5057200;28;20512;-70
2023/09/16 02:47:22;;;;;;;;;;;;;;;24.87;47.96;99118.97;5074164;28;20291;-70
2023/09/16 02:49:48;;;;;;;;;;;;;;;24.85;47.83;99126.38;5072999;28;20283;-71
2023/09/16 02:52:15;;;;;;;;;;;;;;;24.83;47.83;99121.25;5057074;28;20374;-70
2023/09/16 02:54:41;;;;;;;;;;;;;;;24.83;47.78;99123.91;5073873;28;20371;-70
2023/09/16 02:57:06;;;;;;;;;;;;;;;24.81;47.84;99122.44;5073836;28;20015;-70
2023/09/16 02:59:31;;;;;;;;;;;;;;;24.79;48.06;99119.16;5073622;28;20379;-71
2023/09/16 03:01:56;;;;;;;;;;;;;;;24.78;48.01;99114.84;5057060;28;19966;-71
2023/09/16 03:04:22;;;;;;;;;;;;;;;24.75;47.88;99118.75;5074967;28;19923;-71
2023/09/16 03:06:47;;;;;;;;;;;;;;;24.71;48.03;99118.31;5074133;28;19916;-71
2023/09/16 03:09:13;;;;;;;;;;;;;;;24.70;48.10;99122.03;5073798;28;20375;-71
2023/09/16 03:11:38;;;;;;;;;;;;;;;24.68;47.98;99120.56;5074814;28;19932;-72
2023/09/16 03:14:03;;;;;;;;;;;;;;;24.65;47.97;99121.78;5075194;28;19939;-71
2023/09/16 03:16:29;;;;;;;;;;;;;;;24.64;48.15;99109.47;5075077;28;19917;-70
2023/09/16 03:18:54;;;;;;;;;;;;;;;24.63;48.29;99107.00;5073257;28;20268;-71
2023/09/16 03:21:19;;;;;;;;;;;;;;;24.61;48.24;99106.38;5073333;28;19917;-71
2023/09/16 03:23:45;;;;;;;;;;;;;;;24.61;47.88;99104.53;5073372;28;19916;-71
2023/09/16 03:26:10;;;;;;;;;;;;;;;24.59;48.18;99103.06;5073451;28;19966;-71
2023/09/16 03:28:37;;;;;;;;;;;;;;;24.57;48.12;99111.28;5073390;28;19921;-71
2023/09/16 03:31:03;;;;;;;;;;;;;;;24.54;48.18;99111.63;5072963;28;19916;-71
2023/09/16 03:33:28;;;;;;;;;;;;;;;24.54;48.40;99111.63;5073490;28;20395;-72
2023/09/16 03:35:53;;;;;;;;;;;;;;;24.51;48.30;99115.53;5074453;28;19920;-71
2023/09/16 03:38:19;;;;;;;;;;;;;;;24.52;48.28;99113.69;5073068;28;19921;-70
2023/09/16 03:40:44;;;;;;;;;;;;;;;24.51;48.22;99107.53;5073294;28;19942;-72
2023/09/16 03:43:09;;;;;;;;;;;;;;;24.52;48.28;99116.34;5056359;28;19917;-70
2023/09/16 03:45:35;;;;;;;;;;;;;;;24.52;48.39;99108.34;5072751;28;19999;-70
2023/09/16 03:48:00;;;;;;;;;;;;;;;24.54;48.10;99101.81;5074402;28;19916;-70
2023/09/16 03:50:26;;;;;;;;;;;;;;;24.54;48.13;99101.81;5072704;28;19921;-70
2023/09/16 03:52:51;;;;;;;;;;;;;;;24.55;48.17;99106.09;5073314;28;20425;-71
2023/09/16 03:55:16;;;;;;;;;;;;;;;24.55;48.14;99111.44;5056064;28;19959;-71
2023/09/16 03:57:41;;;;;;;;;;;;;;;24.57;47.98;99116.59;5073980;28;19924;-71
2023/09/16 04:00:07;;;;;;;;;;;;;;;24.59;47.93;99119.06;5055011;28;20416;-71
2023/09/16 04:02:32;;;;;;;;;;;;;;;24.61;47.90;99128.53;5071647;28;19917;-72
2023/09/16 04:04:58;;;;;;;;;;;;;;;24.68;47.89;99123.22;5072669;28;19969;-72
2023/09/16 04:07:23;;;;;;;;;;;;;;;24.84;47.36;99130.91;5055549;28;19916;-72
2023/09/16 04:09:48;;;;;;;;;;;;;;;25.02;46.96;99132.19;5072611;28;19927;-71
2023/09/16 04:12:14;;;;;;;;;;;;;;;25.09;46.73;99133.00;5072688;28;19943;-70
2023/09/16 04:14:39;;;;;;;;;;;;;;;25.11;46.45;99141.63;5073903;28;19916;-71
2023/09/16 04:17:04;;;;;;;;;;;;;;;25.33;46.16;99138.84;5072542;28;20356;-71
2023/09/16 04:19:30;;;;;;;;;;;;;;;25.77;44.88;99140.94;5072581;28;20403;-71
2023/09/16 04:21:55;;;;;;;;;;;;;;;26.11;44.09;99140.97;5073447;28;19916;-71
2023/09/16 04:24:20;;;;;;;;;;;;;;;26.58;43.56;99144.31;5073372;28;19916;-71
2023/09/16 04:26:46;;;;;;;;;;;;;;;27.08;42.31;99149.06;5055949;28;19985;-71
2023/09/16 04:29:11;;;;;;;;;;;;;;;27.61;41.09;99153.28;5072335;28;19924;-71
2023/09/16 04:31:36;;;;;;;;;;;;;;;28.06;40.30;99153.16;5071876;28;19927;-72
2023/09/16 04:34:02;;;;;;;;;;;;;;;28.54;39.03;99156.97;5071924;28;20015;-72
2023/09/16 04:36:28;;;;;;;;;;;;;;;29.02;38.08;99158.09;5072609;28;19916;-71
2023/09/16 04:38:53;;;;;;;;;;;;;;;29.49;37.31;99160.13;5072267;28;19923;-71
2023/09/16 04:41:21;;;;;;;;;;;;;;;29.95;36.67;99159.41;5071891;28;20295;-71
2023/09/16 04:43:49;;;;;;;;;;;;;;;30.42;35.41;99168.53;5073166;28;19981;-70
2023/09/16 04:46:15;;;;;;;;;;;;;;;30.83;34.94;99159.41;5072195;28;19923;-71
2023/09/16 04:48:40;;;;;;;;;;;;;;;31.23;34.44;99157.75;5073227;28;19920;-72
2023/09/16 04:51:05;;;;;;;;;;;;;;;31.61;33.45;99161.66;5071743;28;19916;-71
2023/09/16 04:53:32;;;;;;;;;;;;;;;31.98;33.15;99169.28;5071638;28;20015;-71
2023/09/16 04:56:00;;;;;;;;;;;;;;;32.33;32.39;99167.38;5073332;28;19964;-71
2023/09/16 04:58:26;;;;;;;;;;;;;;;32.70;31.85;99164.06;5054819;28;20019;-71
2023/09/16 05:00:51;;;;;;;;;;;;;;;33.02;31.12;99161.47;5073055;28;19959;-71
2023/09/16 05:03:18;;;;;;;;;;;;;;;33.32;30.83;99157.44;5071767;28;19983;-70
2023/09/16 05:05:45;;;;;;;;;;;;;;;33.59;30.83;99167.41;5071770;28;19965;-71
2023/09/16 05:08:10;;;;;;;;;;;;;;;33.85;30.06;99163.06;5072018;28;19923;-71
2023/09/16 05:10:35;;;;;;;;;;;;;;;34.14;29.69;99162.69;5071573;28;19920;-71
2023/09/16 05:13:01;;;;;;;;;;;;;;;34.41;29.66;99171.56;5070951;28;19924;-72
2023/09/16 05:15:26;;;;;;;;;;;;;;;34.74;28.98;99180.41;5073016;28;20382;-71
2023/09/16 05:17:51;;;;;;;;;;;;;;;35.00;28.25;99175.06;5073528;28;20427;-72
2023/09/16 05:20:17;;;;;;;;;;;;;;;35.25;28.05;99168.06;5073046;28;19946;-71
2023/09/16 05:22:45;;;;;;;;;;;;;;;35.51;27.96;99169.72;5072036;28;19923;-71
2023/09/16 05:25:11;;;;;;;;;;;;;;;35.85;27.41;99181.94;5071667;28;20407;-71
2023/09/16 05:27:36;;;;;;;;;;;;;;;36.18;26.70;99180.56;5054985;28;19970;-73
2023/09/16 05:30:01;;;;;;;;;;;;;;;36.45;26.68;99187.56;5072802;28;19916;-75
2023/09/16 05:32:27;;;;;;;;;;;;;;;36.75;26.07;99183.94;5071634;28;20065;-80
2023/09/16 05:34:53;;;;;;;;;;;;;;;36.98;25.88;99194.44;5072068;28;20383;-82
2023/09/16 05:37:18;;;;;;;;;;;;;;;37.22;25.90;99189.94;5073077;28;19943;-79
2023/09/16 05:39:43;;;;;;;;;;;;;;;37.36;25.69;99189.34;5080131;28;19916;-80
2023/09/16 05:42:09;;;;;;;;;;;;;;;37.55;25.83;99187.53;5088109;28;19927;-73
2023/09/16 05:44:35;;;;;;;;;;;;;;;37.73;25.05;99186.03;5084790;28;19920;-74
2023/09/16 05:47:01;;;;;;;;;;;;;;;37.81;24.79;99190.91;5084154;28;19920;-76
2023/09/16 05:49:26;;;;;;;;;;;;;;;37.88;25.04;99187.03;5088318;28;19979;-75
2023/09/16 05:51:51;;;;;;;;;;;;;;;37.17;25.83;99200.03;5087772;28;19923;-75
2023/09/16 05:54:18;;;;;;;;;;;;;;;36.45;26.08;99190.28;5089017;28;19924;-74
2023/09/16 05:56:43;;;;;;;;;;;;;;;35.90;27.35;99198.25;5090070;28;19947;-83
2023/09/16 05:59:08;;;;;;;;;;;;;;;35.81;26.61;99194.47;5090391;28;19946;-83
2023/09/16 06:01:37;;;;;;;;;;;;;;;36.31;25.51;99195.50;5087905;28;19916;-79
2023/09/16 06:04:05;;;;;;;;;;;;;;;36.61;25.26;99201.09;5087718;28;19923;-82
2023/09/16 06:06:31;;;;;;;;;;;;;;;37.05;25.37;99208.53;5091683;28;19967;-86
2023/09/16 06:08:56;;;;;;;;;;;;;;;37.11;24.88;99208.22;5070821;28;19925;-74
2023/09/16 06:11:26;;;;;;;;;;;;;;;36.90;24.99;99206.72;5087217;28;19921;-73
2023/09/16 06:13:52;;;;;;;;;;;;;;;37.31;24.91;99206.50;5085882;28;19939;-76
2023/09/16 06:16:17;;;;;;;;;;;;;;;37.64;24.57;99210.34;5083250;28;20368;-74
2023/09/16 06:18:42;;;;;;;;;;;;;;;37.90;24.24;99210.16;5079025;28;19917;-77
2023/09/16 06:21:08;;;;;;;;;;;;;;;38.13;23.45;99214.03;5076022;28;19916;-73
2023/09/16 06:23:33;;;;;;;;;;;;;;;38.33;24.65;99209.47;5078022;28;19920;-71
2023/09/16 06:25:58;;;;;;;;;;;;;;;38.50;23.86;99209.81;5093321;28;19916;-71
2023/09/16 06:28:24;;;;;;;;;;;;;;;38.60;23.33;99213.53;5095561;28;19974;-70
2023/09/16 06:30:49;;;;;;;;;;;;;;;38.12;23.66;99222.47;5093836;28;19963;-73
2023/09/16 06:33:14;;;;;;;;;;;;;;;38.16;24.04;99229.84;5094368;28;19923;-72
2023/09/16 06:35:40;;;;;;;;;;;;;;;38.40;23.50;99222.75;5095512;28;20030;-73
2023/09/16 06:38:05;;;;;;;;;;;;;;;38.52;23.03;99237.63;5094129;28;20036;-74
2023/09/16 06:40:30;;;;;;;;;;;;;;;38.58;22.76;99238.38;5093607;28;19916;-72
2023/09/16 06:42:55;;;;;;;;;;;;;;;38.72;22.17;99239.31;5093239;28;20006;-72
2023/09/16 06:45:21;;;;;;;;;;;;;;;38.71;22.80;99240.44;5093158;28;19980;-72
2023/09/16 06:47:46;;;;;;;;;;;;;;;38.72;22.57;99236.59;5095089;28;19920;-73
2023/09/16 06:50:12;;;;;;;;;;;;;;;38.75;22.84;99248.84;5093526;28;20303;-72
2023/09/16 06:52:38;;;;;;;;;;;;;;;38.83;22.77;99250.13;5094149;28;19938;-74
2023/09/16 06:55:04;;;;;;;;;;;;;;;38.83;22.60;99245.47;5093783;28;19916;-74
2023/09/16 06:57:29;;;;;;;;;;;;;;;38.90;22.98;99247.81;5076322;28;19920;-68
2023/09/16 06:59:55;;;;;;;;;;;;;;;38.78;22.52;99248.25;5094554;28;20363;-67
2023/09/16 07:02:22;;;;;;;;;;;;;;;38.58;22.91;99249.28;5093232;28;20367;-70
2023/09/16 07:04:47;;;;;;;;;;;;;;;38.58;24.63;99249.28;5094775;28;19919;-72
2023/09/16 07:07:14;;;;;;;;;;;;;;;38.42;24.73;99258.75;5075599;28;19989;-73
2023/09/16 07:09:39;;;;;;;;;;;;;;;38.53;25.11;99250.16;5084180;28;20027;-71
2023/09/16 07:12:05;;;;;;;;;;;;;;;38.69;24.61;99259.00;5073952;28;20003;-71
2023/09/16 07:14:30;;;;;;;;;;;;;;;39.03;24.08;99258.03;5072558;28;19916;-72
2023/09/16 07:16:56;;;;;;;;;;;;;;;39.38;23.28;99261.41;5074117;28;19916;-71
2023/09/16 07:19:21;;;;;;;;;;;;;;;39.44;23.41;99248.47;5072706;28;19916;-76
2023/09/16 07:21:46;;;;;;;;;;;;;;;39.48;23.06;99256.91;5072900;28;19973;-75
2023/09/16 07:24:12;;;;;;;;;;;;;;;38.85;23.66;99258.81;5073413;28;19916;-76
2023/09/16 07:26:37;;;;;;;;;;;;;;;38.18;24.11;99263.06;5074261;28;19928;-75
2023/09/16 07:29:02;;;;;;;;;;;;;;;37.63;24.92;99271.34;5073897;28;19963;-75
2023/09/16 07:31:28;;;;;;;;;;;;;;;37.74;24.94;99263.16;5072694;28;20303;-74
2023/09/16 07:33:53;;;;;;;;;;;;;;;38.19;25.19;99272.03;5073844;28;20007;-74
2023/09/16 07:36:18;;;;;;;;;;;;;;;38.31;24.81;99275.19;5071860;28;19917;-73
2023/09/16 07:38:44;;;;;;;;;;;;;;;38.81;24.01;99274.97;5072560;28;19917;-71
2023/09/16 07:41:10;;;;;;;;;;;;;;;39.17;23.61;99279.16;5055603;28;20450;-73
2023/09/16 07:43:36;;;;;;;;;;;;;;;39.55;22.69;99281.94;5072066;28;20379;-72
2023/09/16 07:46:01;;;;;;;;;;;;;;;39.77;22.89;99273.94;5071743;28;19923;-71
2023/09/16 07:48:26;;;;;;;;;;;;;;;40.01;21.87;99278.50;5071914;28;19943;-70
2023/09/16 07:50:52;;;;;;;;;;;;;;;40.05;22.52;99282.25;5054524;28;19920;-72
2023/09/16 07:53:17;;;;;;;;;;;;;;;39.53;22.97;99278.69;5072002;28;19927;-72
2023/09/16 07:55:42;;;;;;;;;;;;;;;38.80;23.03;99284.25;5072253;28;19923;-72
2023/09/16 07:58:08;;;;;;;;;;;;;;;38.16;24.95;99287.06;5071480;28;19920;-72
2023/09/16 08:00:33;;;;;;;;;;;;;;;37.75;25.45;99281.09;5055577;28;19917;-71
2023/09/16 08:02:58;;;;;;;;;;;;;;;37.48;25.14;99277.72;5071513;28;19916;-70
2023/09/16 08:05:24;;;;;;;;;;;;;;;37.22;25.93;99278.97;5073201;28;19923;-70
2023/09/16 08:07:49;;;;;;;;;;;;;;;37.22;25.95;99284.41;5073608;28;19916;-70
2023/09/16 08:10:14;;;;;;;;;;;;;;;37.27;28.10;99282.47;5092113;28;19931;-71
2023/09/16 08:12:40;;;;;;;;;;;;;;;37.50;29.49;99287.50;5074631;28;19916;-72
2023/09/16 08:15:06;;;;;;;;;;;;;;;37.05;26.33;99280.13;5093065;28;19916;-70
2023/09/16 08:17:32;;;;;;;;;;;;;;;36.57;27.59;99274.25;5092473;28;20019;-74
2023/09/16 08:19:57;;;;;;;;;;;;;;;36.34;29.22;99278.38;5092079;28;19955;-73
2023/09/16 08:22:23;;;;;;;;;;;;;;;36.18;29.32;99281.09;5093405;28;20314;-73
2023/09/16 08:24:49;;;;;;;;;;;;;;;36.10;31.43;99270.75;5091771;28;19923;-72
2023/09/16 08:27:14;;;;;;;;;;;;;;;36.53;29.19;99276.72;5093049;28;19920;-73
2023/09/16 08:29:40;;;;;;;;;;;;;;;37.52;33.85;99282.59;5091952;28;19978;-74
2023/09/16 08:32:05;;;;;;;;;;;;;;;38.22;31.35;99279.63;5092737;28;19924;-72
2023/09/16 08:34:30;;;;;;;;;;;;;;;38.21;27.47;99275.31;5092951;28;19917;-76
2023/09/16 08:36:56;;;;;;;;;;;;;;;38.36;30.91;99277.06;5093353;28;20390;-76
2023/09/16 08:39:21;;;;;;;;;;;;;;;38.85;28.05;99280.66;5093224;28;19920;-77
2023/09/16 08:41:52;;;;;;;;;;;;;;;38.57;27.51;99274.91;5085894;28;19978;-75
2023/09/16 08:44:17;;;;;;;;;;;;;;;38.31;28.80;99277.13;5071396;28;19931;-75
2023/09/16 08:46:45;;;;;;;;;;;;;;;38.11;29.21;99287.09;5072364;28;19920;-77
2023/09/16 08:49:12;;;;;;;;;;;;;;;37.78;28.95;99291.44;5070511;28;19917;-76
2023/09/16 08:51:38;;;;;;;;;;;;;;;38.23;27.77;99292.19;5054588;28;19921;-74
2023/09/16 08:54:04;;;;;;;;;;;;;;;38.05;25.12;99293.69;5070756;28;19924;-67
2023/09/16 08:56:29;;;;;;;;;;;;;;;37.65;23.44;99293.69;5070735;28;20393;-66
2023/09/16 08:58:54;;;;;;;;;;;;;;;37.63;23.96;99293.13;5071270;28;19924;-68
2023/09/16 09:01:19;;;;;;;;;;;;;;;37.84;23.10;99295.75;5070805;28;19939;-67
2023/09/16 09:03:45;;;;;;;;;;;;;;;37.86;22.82;99290.00;5071320;28;19916;-68
2023/09/16 09:06:10;;;;;;;;;;;;;;;37.72;23.61;99290.66;5070295;28;20046;-66
2023/09/16 09:08:36;;;;;;;;;;;;;;;37.61;23.68;99294.53;5070274;28;19924;-67
2023/09/16 09:11:01;;;;;;;;;;;;;;;37.73;22.88;99286.81;5070757;28;19921;-68
2023/09/16 09:13:26;;;;;;;;;;;;;;;37.82;24.41;99282.41;5071239;28;19921;-69
2023/09/16 09:15:55;;;;;;;;;;;;;;;37.79;23.89;99284.88;5070476;28;19916;-69
2023/09/16 09:18:20;;;;;;;;;;;;;;;37.94;23.72;99281.22;5072057;28;19920;-69
2023/09/16 09:20:45;;;;;;;;;;;;;;;37.71;22.66;99280.06;5070923;28;19917;-68
2023/09/16 09:23:11;;;;;;;;;;;;;;;36.70;23.92;99275.56;5070546;28;20372;-68
2023/09/16 09:25:36;;;;;;;;;;;;;;;36.72;26.03;99276.09;5071890;28;20485;-67
2023/09/16 09:28:02;;;;;;;;;;;;;;;36.63;25.97;99272.34;5070597;28;19916;-69
2023/09/16 09:30:27;;;;;;;;;;;;;;;36.41;24.54;99270.75;5072125;28;19921;-70
2023/09/16 09:32:56;;;;;;;;;;;;;;;36.01;24.92;99266.97;5053864;28;19963;-70
2023/09/16 09:35:22;;;;;;;;;;;;;;;35.56;25.21;99269.34;5070637;28;19924;-67
2023/09/16 09:37:47;;;;;;;;;;;;;;;35.21;25.58;99275.50;5071760;28;20020;-69
2023/09/16 09:40:13;;;;;;;;;;;;;;;34.98;28.29;99274.84;5070338;28;20454;-68
2023/09/16 09:42:41;;;;;;;;;;;;;;;34.89;26.91;99273.75;5071720;28;19917;-70
2023/09/16 09:45:07;;;;;;;;;;;;;;;34.89;26.86;99265.59;5070236;28;19921;-69
2023/09/16 09:47:34;;;;;;;;;;;;;;;34.87;25.92;99267.75;5070497;28;19916;-76
2023/09/16 09:49:59;;;;;;;;;;;;;;;34.59;25.65;99269.75;5052992;28;19995;-73
2023/09/16 09:52:25;;;;;;;;;;;;;;;34.56;25.69;99256.72;5070238;28;20058;-71
2023/09/16 09:54:50;;;;;;;;;;;;;;;34.33;25.89;99255.22;5070427;28;19916;-73
2023/09/16 09:57:16;;;;;;;;;;;;;;;33.83;27.06;99263.50;5071033;28;19916;-70
2023/09/16 09:59:41;;;;;;;;;;;;;;;34.21;26.83;99252.69;5072088;28;19974;-69
2023/09/16 10:02:06;;;;;;;;;;;;;;;34.09;26.15;99255.56;5074066;28;20051;-68
2023/09/16 10:04:32;;;;;;;;;;;;;;;34.21;27.05;99247.28;5075492;28;20459;-70
2023/09/16 10:07:00;;;;;;;;;;;;;;;34.23;26.76;99245.94;5057210;28;19920;-71
2023/09/16 10:09:25;;;;;;;;;;;;;;;33.95;26.53;99249.78;5090163;28;19975;-69
2023/09/16 10:11:50;;;;;;;;;;;;;;;33.92;26.72;99244.06;5094130;28;20049;-71
2023/09/16 10:14:16;;;;;;;;;;;;;;;33.81;26.84;99243.16;5095880;28;19916;-70
2023/09/16 10:16:41;;;;;;;;;;;;;;;33.64;27.09;99252.19;5093767;28;20252;-68
2023/09/16 10:19:06;;;;;;;;;;;;;;;33.66;28.31;99252.75;5096419;28;19993;-76
2023/09/16 10:21:32;;;;;;;;;;;;;;;33.79;29.16;99254.25;5077270;28;19924;-76
2023/09/16 10:23:57;;;;;;;;;;;;;;;33.89;28.67;99248.94;5092912;28;19927;-83
2023/09/16 10:26:22;;;;;;;;;;;;;;;33.98;27.38;99257.38;5096446;28;20006;-81
2023/09/16 10:28:49;;;;;;;;;;;;;;;34.02;27.29;99261.22;5096225;28;20305;-73
2023/09/16 10:31:16;;;;;;;;;;;;;;;34.13;27.09;99250.44;5094347;28;19916;-71
2023/09/16 10:33:41;;;;;;;;;;;;;;;34.14;27.25;99252.91;5080993;28;20398;-73
2023/09/16 10:36:07;;;;;;;;;;;;;;;34.15;26.69;99248.31;5072672;28;19920;-72
2023/09/16 10:38:33;;;;;;;;;;;;;;;34.13;26.56;99245.03;5072832;28;19917;-72
2023/09/16 10:40:58;;;;;;;;;;;;;;;34.06;26.59;99243.38;5058312;28;20391;-72
2023/09/16 10:43:23;;;;;;;;;;;;;;;34.00;26.71;99244.41;5057575;28;20308;-72
2023/09/16 10:45:48;;;;;;;;;;;;;;;33.95;26.63;99236.22;5074053;28;19925;-72
2023/09/16 10:48:14;;;;;;;;;;;;;;;33.92;26.75;99231.34;5075315;28;20013;-73
2023/09/16 10:50:39;;;;;;;;;;;;;;;33.93;26.96;99229.47;5057633;28;19917;-72
2023/09/16 10:53:05;;;;;;;;;;;;;;;33.96;26.98;99229.75;5074183;28;20379;-72
2023/09/16 10:55:43;;;;;;;;;;;;;;;33.96;26.90;99223.53;5074257;28;19973;-72
2023/09/16 10:58:09;;;;;;;;;;;;;;;33.95;26.92;99216.47;5075266;28;19955;-73
2023/09/16 11:00:42;;;;;;;;;;;;;;;33.96;26.80;99212.69;5074416;28;19931;-72
2023/09/16 11:03:11;;;;;;;;;;;;;;;33.97;26.62;99208.91;5074024;28;19920;-73
2023/09/16 11:05:36;;;;;;;;;;;;;;;33.99;27.14;99202.16;5074488;28;19970;-72
2023/09/16 11:08:02;;;;;;;;;;;;;;;34.00;27.40;99202.97;5057684;28;19924;-72
2023/09/16 11:10:27;;;;;;;;;;;;;;;33.96;27.55;99196.44;5074744;28;20383;-71
2023/09/16 11:12:52;;;;;;;;;;;;;;;33.95;27.92;99192.91;5073819;28;19916;-72
2023/09/16 11:15:18;;;;;;;;;;;;;;;33.96;28.10;99191.03;5073704;28;20358;-71
2023/09/16 11:17:43;;;;;;;;;;;;;;;33.95;28.22;99189.41;5073749;28;19923;-72
2023/09/16 11:20:21;;;;;;;;;;;;;;;33.97;28.01;99188.06;5056922;28;19917;-72
2023/09/16 11:22:47;;;;;;;;;;;;;;;33.97;28.00;99177.25;5073630;28;19985;-72
2023/09/16 11:25:14;;;;;;;;;;;;;;;34.00;27.94;99181.28;5073519;28;19970;-72
2023/09/16 11:27:39;;;;;;;;;;;;;;;33.97;28.45;99176.41;5056894;28;19917;-72
2023/09/16 11:30:12;;;;;;;;;;;;;;;33.94;28.43;99176.91;5074635;28;20300;-72
2023/09/16 11:33:04;;;;;;;;;;;;;;;33.94;28.33;99171.50;5074560;28;20324;-72
2023/09/16 11:35:29;;;;;;;;;;;;;;;33.92;28.31;99169.06;5074874;28;20295;-72
2023/09/16 11:37:55;;;;;;;;;;;;;;;33.94;28.45;99163.38;5073356;28;19924;-72
2023/09/16 11:40:27;;;;;;;;;;;;;;;33.99;28.56;99169.66;5073441;28;19920;-74
2023/09/16 11:42:54;;;;;;;;;;;;;;;34.06;28.87;99164.84;5073289;28;19973;-72
2023/09/16 11:45:19;;;;;;;;;;;;;;;34.15;28.87;99167.06;5073022;28;19928;-72
2023/09/16 11:47:45;;;;;;;;;;;;;;;34.18;28.73;99163.81;5073702;28;19917;-72
2023/09/16 11:50:19;;;;;;;;;;;;;;;34.21;28.67;99158.69;5056176;28;20020;-72
2023/09/16 11:52:44;;;;;;;;;;;;;;;34.21;28.11;99155.16;5073374;28;19916;-73
2023/09/16 11:55:09;;;;;;;;;;;;;;;34.22;27.88;99156.78;5056304;28;20034;-73
2023/09/16 11:57:35;;;;;;;;;;;;;;;34.17;27.83;99160.28;5056027;28;20387;-72
2023/09/16 12:00:00;;;;;;;;;;;;;;;34.12;27.84;99151.31;5073119;28;20451;-75
2023/09/16 12:02:26;;;;;;;;;;;;;;;34.09;28.14;99158.06;5072729;28;19959;-72
2023/09/16 12:04:51;;;;;;;;;;;;;;;34.07;27.93;99147.50;5072741;28;19916;-73
2023/09/16 12:07:18;;;;;;;;;;;;;;;34.06;28.36;99145.03;5072647;28;19926;-72
2023/09/16 12:09:43;;;;;;;;;;;;;;;34.02;27.82;99144.75;5072816;28;20027;-71
2023/09/16 12:12:09;;;;;;;;;;;;;;;33.96;28.37;99137.69;5072745;28;20447;-73
2023/09/16 12:14:34;;;;;;;;;;;;;;;33.91;28.65;99144.97;5073476;28;19974;-73
2023/09/16 12:16:59;;;;;;;;;;;;;;;33.81;28.72;99143.00;5056086;28;19924;-72
2023/09/16 12:19:25;;;;;;;;;;;;;;;33.73;29.24;99144.28;5072550;28;20399;-72
2023/09/16 12:21:50;;;;;;;;;;;;;;;33.68;28.87;99142.34;5073515;28;19966;-73
2023/09/16 12:24:16;;;;;;;;;;;;;;;33.65;29.35;99136.63;5072120;28;20007;-71
2023/09/16 12:26:42;;;;;;;;;;;;;;;33.62;29.72;99137.13;5073850;28;20359;-72
2023/09/16 12:29:08;;;;;;;;;;;;;;;33.59;29.68;99137.66;5072130;28;20036;-72
2023/09/16 12:31:33;;;;;;;;;;;;;;;33.53;29.87;99134.91;5072091;28;19917;-72
2023/09/16 12:33:58;;;;;;;;;;;;;;;33.49;29.77;99135.69;5073559;28;20004;-72
2023/09/16 12:36:26;;;;;;;;;;;;;;;33.49;30.50;99132.97;5073941;28;19923;-73
2023/09/16 12:38:53;;;;;;;;;;;;;;;33.47;30.39;99130.53;5073283;28;19916;-72
2023/09/16 12:41:18;;;;;;;;;;;;;;;33.48;30.33;99125.97;5072000;28;19923;-71